Taranto — V2AK2 — position and weather

sailwx.info

Track history (hours):
 
Tides and Currents Weather Stations Pressure Air Temp Water Temp Dewpoint Dewpoint Depression Visibility Wind Speed Wind Dir Waves Ship Positions

Taranto

Last reported at 2015-Jul-20 09:14 UTC. Time now 2015-Jul-29 15:55 UTC.
Position N 38°33' W 010°04'.
Warning: this ship's position is 9 days out of date.

Length 88 m; draft 4.9 m.

Type: Cargo ship. MMSI: 304010614.

Date/timePositionNaut miles runAvg speedWind from/ knotsBaromVisibWave heightAir tempDewpointWater temp
2015-Jul-20 09:14N 38°33' W 010°04'7 9.9
2015-Jul-20 08:33N 38°40' W 010°06'10 9.9
2015-Jul-20 07:33N 38°49' W 010°06'  
2015-Jul-16 20:33N 50°19' W 003°29'9 8.6
2015-Jul-16 19:34N 50°28' W 003°27'5 0.1
2015-Jul-14 17:11N 50°32' W 003°30'2 2.8
2015-Jul-14 16:31N 50°32' W 003°27'0 0.0
2015-Jul-14 15:31N 50°32' W 003°27'0 0.0
2015-Jul-14 14:31N 50°32' W 003°27'0 0.0
2015-Jul-14 13:31N 50°32' W 003°27'0 0.0
2015-Jul-14 12:31N 50°32' W 003°27'0 0.0
2015-Jul-14 11:31N 50°32' W 003°27'0 0.0
2015-Jul-14 10:31N 50°32' W 003°27'0 0.0
2015-Jul-14 09:31N 50°32' W 003°27'0 0.0
2015-Jul-14 08:31N 50°32' W 003°27'0 0.0
2015-Jul-14 07:31N 50°32' W 003°27'0 0.0
2015-Jul-14 06:31N 50°32' W 003°27'0 0.0
2015-Jul-14 05:31N 50°32' W 003°27'0 0.0
2015-Jul-14 04:31N 50°32' W 003°27'0 0.0
2015-Jul-14 03:28N 50°32' W 003°27'0 0.0
2015-Jul-14 02:31N 50°32' W 003°27'0 0.1
2015-Jul-14 01:31N 50°32' W 003°27'0 0.0
2015-Jul-14 00:31N 50°32' W 003°27'0 0.1
2015-Jul-13 23:31N 50°32' W 003°27'0 0.0
2015-Jul-13 22:31N 50°32' W 003°27'0 0.0
2015-Jul-13 21:31N 50°32' W 003°27'0 0.0
2015-Jul-13 20:31N 50°32' W 003°27'0 0.0
2015-Jul-13 19:34N 50°32' W 003°27'3 2.9
2015-Jul-13 18:34N 50°29' W 003°27'1010.5
2015-Jul-13 17:34N 50°19' W 003°30'  
Track history (hours):
 
Tides and Currents Weather Stations Pressure Air Temp Water Temp Dewpoint Dewpoint Depression Visibility Wind Speed Wind Dir Waves Ship Positions

Taranto

Last reported at 2015-Jul-20 09:14 UTC. Time now 2015-Jul-29 15:55 UTC.
Position N 38°33' W 010°04'.
Warning: this ship's position is 9 days out of date.

Length 88 m; draft 4.9 m.

Type: Cargo ship. MMSI: 304010614.

Date/timePositionNaut miles runAvg speedWind from/ knotsBaromVisibWave heightAir tempDewpointWater temp
2015-Jul-20 09:14N 38°33' W 010°04'7 9.9
2015-Jul-20 08:33N 38°40' W 010°06'10 9.9
2015-Jul-20 07:33N 38°49' W 010°06'  
2015-Jul-16 20:33N 50°19' W 003°29'9 8.6
2015-Jul-16 19:34N 50°28' W 003°27'5 0.1
2015-Jul-14 17:11N 50°32' W 003°30'2 2.8
2015-Jul-14 16:31N 50°32' W 003°27'0 0.0
2015-Jul-14 15:31N 50°32' W 003°27'0 0.0
2015-Jul-14 14:31N 50°32' W 003°27'0 0.0
2015-Jul-14 13:31N 50°32' W 003°27'0 0.0
2015-Jul-14 12:31N 50°32' W 003°27'0 0.0
2015-Jul-14 11:31N 50°32' W 003°27'0 0.0
2015-Jul-14 10:31N 50°32' W 003°27'0 0.0
2015-Jul-14 09:31N 50°32' W 003°27'0 0.0
2015-Jul-14 08:31N 50°32' W 003°27'0 0.0
2015-Jul-14 07:31N 50°32' W 003°27'0 0.0
2015-Jul-14 06:31N 50°32' W 003°27'0 0.0
2015-Jul-14 05:31N 50°32' W 003°27'0 0.0
2015-Jul-14 04:31N 50°32' W 003°27'0 0.0
2015-Jul-14 03:28N 50°32' W 003°27'0 0.0
2015-Jul-14 02:31N 50°32' W 003°27'0 0.1
2015-Jul-14 01:31N 50°32' W 003°27'0 0.0
2015-Jul-14 00:31N 50°32' W 003°27'0 0.1
2015-Jul-13 23:31N 50°32' W 003°27'0 0.0
2015-Jul-13 22:31N 50°32' W 003°27'0 0.0
2015-Jul-13 21:31N 50°32' W 003°27'0 0.0
2015-Jul-13 20:31N 50°32' W 003°27'0 0.0
2015-Jul-13 19:34N 50°32' W 003°27'3 2.9
2015-Jul-13 18:34N 50°29' W 003°27'1010.5
2015-Jul-13 17:34N 50°19' W 003°30'  

Dump ship's entire track history